Le Grand, CA (95333)

9:22 AM PST on January 31, 2015 (GMT -0800)
Northeast Merced | Change Station
CLOSE
Current Station
Personal Weather Station
Location: Merced, CA
Elevation: 154 ft
Nearby Weather Stations
Active Advisory: Dense Fog Advisory

Elev 154 ft 37.32 °N, 120.45 °W | Updated 4 seconds ago

Fog
Fog
47.7 °F
Feels Like 48 °F
N
1.8
Wind Variable Wind from North
Gusts 3.1 mph

Today
High -- | Low -- °F
--% Chance of Precip.
Yesterday
High -- | Low -- °F
Precip. -- in
7:04 AM 5:24 PM
Waxing Gibbous, 90% visible
Pressure 29.99 in
Visibility 3.0 miles
Clouds Overcast 800 ft
Windchill 48 °F
Dew Point 46 °F
Humidity 92%
Rainfall 0.00 in
Snow Depth Not available.
UV 0 out of 12
Pollen 5.50 out of 12
Air Quality Not available.
Flu Activity Not available.
SPECI KMCE 311716Z AUTO 34006KT 3SM BR OVC008 09/07 A2999 RMK AO2 T00890072

More Conditions Fewer Conditions

Pressure 29.99 in
Visibility 3.0 miles
Clouds Overcast 800 ft
Windchill 48 °F
Dew Point 46 °F
Humidity 92%
Rainfall 0.00 in
Snow Depth Not available.
UV 0 out of 12
Pollen 5.50 out of 12
Air Quality Not available.
Flu Activity Not available.
SPECI KMCE 311716Z AUTO 34006KT 3SM BR OVC008 09/07 A2999 RMK AO2 T00890072

More Conditions Fewer Conditions

10-Day Weather Forecast

Almanac

Astronomy

Jan. 31, 2015 Rise Set
Actual Time
Civil Twilight
Nautical Twilight
Astronomical Twilight
Moon
Length of Visible Light
Length of Day
Tomorrow will be .
, % of the Moon is Illuminated

Today's Extremes

State Highs State Lows

Community

WunderPhotos

Upload Photos

1,792,122 photos uploaded!

WunderBlogs® & News

Nearby

Air Quality

  Air Quality AQ Index Pollutant
Not available.

Snow Depth

Station Depth Elevation

Earthquake Activity

City Distance Mag. Time & Date
Minimum magnitude displayed is 2.5.

Coastal Water Temperatures

Place Temperature

Nearby Weather Stations